sensor_id;sensor_type;location;lat;lon;timestamp;pressure;altitude;pressure_sealevel;temperature;humidity
43298;BME280;28892;55.640;37.532;2023-02-11T00:01:34;98642.97;;;-0.34;59.89
43298;BME280;28892;55.640;37.532;2023-02-11T00:04:00;98652.25;;;-0.41;60.09
43298;BME280;28892;55.640;37.532;2023-02-11T00:06:30;98657.59;;;-0.43;60.32
43298;BME280;28892;55.640;37.532;2023-02-11T00:08:56;98655.00;;;-0.43;60.16
43298;BME280;28892;55.640;37.532;2023-02-11T00:11:23;98656.31;;;-0.27;59.53
43298;BME280;28892;55.640;37.532;2023-02-11T00:13:51;98650.22;;;-0.37;59.95
43298;BME280;28892;55.640;37.532;2023-02-11T00:16:19;98646.66;;;-0.36;59.93
43298;BME280;28892;55.640;37.532;2023-02-11T00:18:45;98652.50;;;-0.44;60.15
43298;BME280;28892;55.640;37.532;2023-02-11T00:21:16;98653.56;;;-0.47;60.03
43298;BME280;28892;55.640;37.532;2023-02-11T00:23:44;98656.75;;;-0.43;60.01
43298;BME280;28892;55.640;37.532;2023-02-11T00:26:14;98656.44;;;-0.50;60.14
43298;BME280;28892;55.640;37.532;2023-02-11T00:28:41;98644.31;;;-0.72;60.52
43298;BME280;28892;55.640;37.532;2023-02-11T00:31:13;98652.06;;;-0.61;60.73
43298;BME280;28892;55.640;37.532;2023-02-11T00:33:39;98658.00;;;-0.59;60.39
43298;BME280;28892;55.640;37.532;2023-02-11T00:36:07;98664.16;;;-0.60;60.42
43298;BME280;28892;55.640;37.532;2023-02-11T00:38:36;98667.53;;;-0.69;60.72
43298;BME280;28892;55.640;37.532;2023-02-11T00:41:02;98650.41;;;-0.83;61.00
43298;BME280;28892;55.640;37.532;2023-02-11T00:43:28;98661.44;;;-0.91;61.30
43298;BME280;28892;55.640;37.532;2023-02-11T00:45:53;98665.88;;;-0.81;61.12
43298;BME280;28892;55.640;37.532;2023-02-11T00:48:19;98655.25;;;-0.78;60.98
43298;BME280;28892;55.640;37.532;2023-02-11T00:50:46;98674.19;;;-0.88;61.35
43298;BME280;28892;55.640;37.532;2023-02-11T00:53:12;98670.03;;;-0.79;60.87
43298;BME280;28892;55.640;37.532;2023-02-11T00:55:38;98675.56;;;-0.72;60.48
43298;BME280;28892;55.640;37.532;2023-02-11T00:58:03;98687.41;;;-0.68;60.39
43298;BME280;28892;55.640;37.532;2023-02-11T01:00:29;98670.00;;;-0.67;60.44
43298;BME280;28892;55.640;37.532;2023-02-11T01:02:55;98681.25;;;-0.67;60.17
43298;BME280;28892;55.640;37.532;2023-02-11T01:05:21;98682.06;;;-0.66;60.22
43298;BME280;28892;55.640;37.532;2023-02-11T01:07:47;98675.84;;;-0.87;60.93
43298;BME280;28892;55.640;37.532;2023-02-11T01:10:15;98682.94;;;-0.77;60.38
43298;BME280;28892;55.640;37.532;2023-02-11T01:12:41;98682.94;;;-0.77;60.35
43298;BME280;28892;55.640;37.532;2023-02-11T01:15:08;98688.84;;;-0.75;60.21
43298;BME280;28892;55.640;37.532;2023-02-11T01:17:36;98691.81;;;-0.80;60.36
43298;BME280;28892;55.640;37.532;2023-02-11T01:20:04;98691.34;;;-0.74;60.08
43298;BME280;28892;55.640;37.532;2023-02-11T01:22:30;98692.81;;;-1.04;60.89
43298;BME280;28892;55.640;37.532;2023-02-11T01:24:56;98693.91;;;-1.52;62.60
43298;BME280;28892;55.640;37.532;2023-02-11T01:27:22;98693.66;;;-1.26;61.66
43298;BME280;28892;55.640;37.532;2023-02-11T01:29:47;98700.63;;;-1.04;60.97
43298;BME280;28892;55.640;37.532;2023-02-11T01:32:13;98710.19;;;-1.04;60.67
43298;BME280;28892;55.640;37.532;2023-02-11T01:34:39;98703.56;;;-1.08;60.89
43298;BME280;28892;55.640;37.532;2023-02-11T01:37:04;98704.88;;;-1.14;60.98
43298;BME280;28892;55.640;37.532;2023-02-11T01:39:33;98705.59;;;-1.23;61.19
43298;BME280;28892;55.640;37.532;2023-02-11T01:42:00;98704.19;;;-1.16;60.90
43298;BME280;28892;55.640;37.532;2023-02-11T01:44:38;98713.88;;;-0.95;60.50
43298;BME280;28892;55.640;37.532;2023-02-11T01:47:04;98701.66;;;-0.95;60.28
43298;BME280;28892;55.640;37.532;2023-02-11T01:49:33;98708.31;;;-0.91;60.18
43298;BME280;28892;55.640;37.532;2023-02-11T01:52:14;98705.44;;;-0.88;60.07
43298;BME280;28892;55.640;37.532;2023-02-11T01:54:48;98710.88;;;-0.79;59.83
43298;BME280;28892;55.640;37.532;2023-02-11T01:57:36;98701.03;;;-0.64;59.10
43298;BME280;28892;55.640;37.532;2023-02-11T02:00:16;98713.66;;;-0.60;59.09
43298;BME280;28892;55.640;37.532;2023-02-11T02:05:39;98709.94;;;-0.46;59.05
43298;BME280;28892;55.640;37.532;2023-02-11T02:10:50;98702.31;;;-0.59;59.00
43298;BME280;28892;55.640;37.532;2023-02-11T02:13:19;98699.34;;;-0.54;58.53
43298;BME280;28892;55.640;37.532;2023-02-11T02:27:15;98697.31;;;-0.62;59.15
43298;BME280;28892;55.640;37.532;2023-02-11T02:38:20;98702.63;;;-0.52;59.26
43298;BME280;28892;55.640;37.532;2023-02-11T02:41:05;98705.41;;;-0.32;58.99
43298;BME280;28892;55.640;37.532;2023-02-11T02:43:33;98706.88;;;-0.51;58.79
43298;BME280;28892;55.640;37.532;2023-02-11T02:46:23;98707.88;;;-0.31;58.77
43298;BME280;28892;55.640;37.532;2023-02-11T02:48:50;98705.53;;;-0.78;59.05
43298;BME280;28892;55.640;37.532;2023-02-11T03:03:09;98701.34;;;-0.58;59.17
43298;BME280;28892;55.640;37.532;2023-02-11T03:05:55;98698.75;;;-0.58;59.13
43298;BME280;28892;55.640;37.532;2023-02-11T03:08:53;98693.06;;;-0.30;58.34
43298;BME280;28892;55.640;37.532;2023-02-11T03:11:21;98694.94;;;-0.97;58.91
43298;BME280;28892;55.640;37.532;2023-02-11T03:13:49;98689.03;;;-1.22;59.76
43298;BME280;28892;55.640;37.532;2023-02-11T03:16:19;98690.53;;;-0.97;59.49
43298;BME280;28892;55.640;37.532;2023-02-11T03:19:00;98695.44;;;-0.71;58.88
43298;BME280;28892;55.640;37.532;2023-02-11T03:21:29;98694.50;;;-0.59;58.50
43298;BME280;28892;55.640;37.532;2023-02-11T03:24:02;98695.50;;;-0.50;58.33
43298;BME280;28892;55.640;37.532;2023-02-11T03:34:49;98683.13;;;-0.58;58.33
43298;BME280;28892;55.640;37.532;2023-02-11T03:39:56;98679.34;;;-0.65;58.46
43298;BME280;28892;55.640;37.532;2023-02-11T03:42:29;98676.25;;;-0.59;57.92
43298;BME280;28892;55.640;37.532;2023-02-11T03:45:02;98682.34;;;-0.81;58.22
43298;BME280;28892;55.640;37.532;2023-02-11T03:47:32;98672.97;;;-0.72;58.17
43298;BME280;28892;55.640;37.532;2023-02-11T03:50:05;98677.47;;;-0.74;58.32
43298;BME280;28892;55.640;37.532;2023-02-11T03:52:35;98677.25;;;-0.82;58.37
43298;BME280;28892;55.640;37.532;2023-02-11T03:55:07;98668.38;;;-0.80;58.08
43298;BME280;28892;55.640;37.532;2023-02-11T03:57:34;98669.09;;;-0.89;58.20
43298;BME280;28892;55.640;37.532;2023-02-11T04:00:00;98666.38;;;-0.88;58.21
43298;BME280;28892;55.640;37.532;2023-02-11T04:02:32;98664.03;;;-0.91;58.47
43298;BME280;28892;55.640;37.532;2023-02-11T04:04:58;98668.53;;;-1.04;58.40
43298;BME280;28892;55.640;37.532;2023-02-11T04:07:28;98662.78;;;-1.08;58.60
43298;BME280;28892;55.640;37.532;2023-02-11T04:09:54;98667.38;;;-1.00;58.20
43298;BME280;28892;55.640;37.532;2023-02-11T04:12:20;98669.59;;;-0.95;58.24
43298;BME280;28892;55.640;37.532;2023-02-11T04:14:46;98665.34;;;-0.96;57.54
43298;BME280;28892;55.640;37.532;2023-02-11T04:17:12;98670.81;;;-1.11;58.06
43298;BME280;28892;55.640;37.532;2023-02-11T04:19:37;98675.66;;;-1.06;58.33
43298;BME280;28892;55.640;37.532;2023-02-11T04:22:04;98664.41;;;-1.07;58.18
43298;BME280;28892;55.640;37.532;2023-02-11T04:24:30;98670.56;;;-1.08;58.22
43298;BME280;28892;55.640;37.532;2023-02-11T04:26:56;98652.34;;;-1.08;58.08
43298;BME280;28892;55.640;37.532;2023-02-11T04:29:22;98656.25;;;-1.02;57.89
43298;BME280;28892;55.640;37.532;2023-02-11T04:31:48;98661.84;;;-1.41;58.26
43298;BME280;28892;55.640;37.532;2023-02-11T04:34:14;98660.56;;;-1.35;58.49
43298;BME280;28892;55.640;37.532;2023-02-11T04:36:40;98650.72;;;-1.32;58.34
43298;BME280;28892;55.640;37.532;2023-02-11T04:39:06;98658.66;;;-1.22;58.01
43298;BME280;28892;55.640;37.532;2023-02-11T04:41:31;98654.41;;;-1.23;58.25
43298;BME280;28892;55.640;37.532;2023-02-11T04:43:57;98657.00;;;-1.34;58.29
43298;BME280;28892;55.640;37.532;2023-02-11T04:46:25;98641.97;;;-1.42;58.30
43298;BME280;28892;55.640;37.532;2023-02-11T04:48:51;98656.53;;;-1.39;58.31
43298;BME280;28892;55.640;37.532;2023-02-11T04:51:16;98666.94;;;-1.62;58.89
43298;BME280;28892;55.640;37.532;2023-02-11T04:53:42;98654.63;;;-1.49;58.69
43298;BME280;28892;55.640;37.532;2023-02-11T04:56:08;98658.06;;;-1.60;59.02
43298;BME280;28892;55.640;37.532;2023-02-11T04:58:37;98664.56;;;-1.43;58.94
43298;BME280;28892;55.640;37.532;2023-02-11T05:01:11;98669.63;;;-1.64;59.36
43298;BME280;28892;55.640;37.532;2023-02-11T05:03:37;98678.41;;;-1.53;59.21
43298;BME280;28892;55.640;37.532;2023-02-11T05:06:03;98667.78;;;-1.50;59.17
43298;BME280;28892;55.640;37.532;2023-02-11T05:08:29;98672.13;;;-1.28;58.78
43298;BME280;28892;55.640;37.532;2023-02-11T05:10:55;98662.75;;;-1.19;58.54
43298;BME280;28892;55.640;37.532;2023-02-11T05:13:21;98658.63;;;-1.10;58.27
43298;BME280;28892;55.640;37.532;2023-02-11T05:15:47;98654.72;;;-1.16;58.16
43298;BME280;28892;55.640;37.532;2023-02-11T05:18:19;98663.00;;;-1.11;58.45
43298;BME280;28892;55.640;37.532;2023-02-11T05:20:45;98663.84;;;-1.22;58.36
43298;BME280;28892;55.640;37.532;2023-02-11T05:23:10;98660.53;;;-1.24;58.74
43298;BME280;28892;55.640;37.532;2023-02-11T05:25:36;98663.13;;;-1.13;58.89
43298;BME280;28892;55.640;37.532;2023-02-11T05:28:02;98667.38;;;-1.00;58.31
43298;BME280;28892;55.640;37.532;2023-02-11T05:30:28;98667.97;;;-0.96;58.26
43298;BME280;28892;55.640;37.532;2023-02-11T05:32:54;98659.09;;;-1.17;58.43
43298;BME280;28892;55.640;37.532;2023-02-11T05:35:20;98656.72;;;-1.08;58.68
43298;BME280;28892;55.640;37.532;2023-02-11T05:37:45;98657.53;;;-0.96;58.49
43298;BME280;28892;55.640;37.532;2023-02-11T05:40:11;98662.84;;;-0.98;58.20
43298;BME280;28892;55.640;37.532;2023-02-11T05:42:38;98652.94;;;-1.16;58.51
43298;BME280;28892;55.640;37.532;2023-02-11T05:45:04;98660.63;;;-1.03;58.65
43298;BME280;28892;55.640;37.532;2023-02-11T05:47:30;98655.22;;;-1.34;59.52
43298;BME280;28892;55.640;37.532;2023-02-11T05:49:56;98660.31;;;-1.32;59.36
43298;BME280;28892;55.640;37.532;2023-02-11T05:52:23;98656.75;;;-1.31;59.90
43298;BME280;28892;55.640;37.532;2023-02-11T05:54:49;98661.09;;;-1.09;59.34
43298;BME280;28892;55.640;37.532;2023-02-11T05:57:15;98667.22;;;-0.99;59.15
43298;BME280;28892;55.640;37.532;2023-02-11T05:59:41;98650.06;;;-0.90;59.14
43298;BME280;28892;55.640;37.532;2023-02-11T06:02:07;98655.34;;;-0.80;58.88
43298;BME280;28892;55.640;37.532;2023-02-11T06:04:33;98668.31;;;-1.01;59.24
43298;BME280;28892;55.640;37.532;2023-02-11T06:07:02;98654.13;;;-1.08;59.35
43298;BME280;28892;55.640;37.532;2023-02-11T06:09:28;98654.31;;;-0.89;58.83
43298;BME280;28892;55.640;37.532;2023-02-11T06:11:53;98654.91;;;-0.85;58.87
43298;BME280;28892;55.640;37.532;2023-02-11T06:14:19;98655.56;;;-0.72;58.67
43298;BME280;28892;55.640;37.532;2023-02-11T06:16:45;98654.06;;;-0.86;58.62
43298;BME280;28892;55.640;37.532;2023-02-11T06:19:11;98654.69;;;-0.93;59.28
43298;BME280;28892;55.640;37.532;2023-02-11T06:21:38;98659.16;;;-0.84;58.32
43298;BME280;28892;55.640;37.532;2023-02-11T06:24:05;98658.50;;;-0.97;58.64
43298;BME280;28892;55.640;37.532;2023-02-11T06:26:31;98667.78;;;-1.39;59.85
43298;BME280;28892;55.640;37.532;2023-02-11T06:29:00;98654.47;;;-1.13;59.75
43298;BME280;28892;55.640;37.532;2023-02-11T06:31:27;98652.38;;;-1.31;59.80
43298;BME280;28892;55.640;37.532;2023-02-11T06:33:53;98654.97;;;-1.08;59.34
43298;BME280;28892;55.640;37.532;2023-02-11T06:36:21;98640.41;;;-1.10;59.03
43298;BME280;28892;55.640;37.532;2023-02-11T06:38:48;98656.53;;;-1.39;59.81
43298;BME280;28892;55.640;37.532;2023-02-11T06:41:16;98664.69;;;-1.44;60.49
43298;BME280;28892;55.640;37.532;2023-02-11T06:43:44;98658.28;;;-1.17;59.99
43298;BME280;28892;55.640;37.532;2023-02-11T06:46:10;98645.16;;;-1.38;59.74
43298;BME280;28892;55.640;37.532;2023-02-11T06:48:36;98651.88;;;-1.13;59.64
43298;BME280;28892;55.640;37.532;2023-02-11T06:51:04;98645.66;;;-0.89;59.24
43298;BME280;28892;55.640;37.532;2023-02-11T06:53:33;98638.91;;;-0.80;59.07
43298;BME280;28892;55.640;37.532;2023-02-11T06:56:09;98643.06;;;-0.89;59.32
43298;BME280;28892;55.640;37.532;2023-02-11T06:58:36;98645.38;;;-0.63;58.76
43298;BME280;28892;55.640;37.532;2023-02-11T07:01:10;98646.81;;;-0.38;58.26
43298;BME280;28892;55.640;37.532;2023-02-11T07:03:37;98639.63;;;-0.24;57.60
43298;BME280;28892;55.640;37.532;2023-02-11T07:06:05;98643.34;;;-0.17;57.47
43298;BME280;28892;55.640;37.532;2023-02-11T07:08:33;98648.44;;;-0.16;57.13
43298;BME280;28892;55.640;37.532;2023-02-11T07:10:58;98662.81;;;-0.21;57.49
43298;BME280;28892;55.640;37.532;2023-02-11T07:13:27;98663.44;;;-0.29;57.20
43298;BME280;28892;55.640;37.532;2023-02-11T07:15:53;98655.38;;;-0.05;56.75
43298;BME280;28892;55.640;37.532;2023-02-11T07:18:18;98649.66;;;-0.20;56.56
43298;BME280;28892;55.640;37.532;2023-02-11T07:20:44;98660.75;;;-0.39;57.50
43298;BME280;28892;55.640;37.532;2023-02-11T07:23:10;98663.25;;;-0.37;57.25
43298;BME280;28892;55.640;37.532;2023-02-11T07:25:35;98655.09;;;-0.44;57.62
43298;BME280;28892;55.640;37.532;2023-02-11T07:28:02;98653.09;;;-0.40;58.10
43298;BME280;28892;55.640;37.532;2023-02-11T07:30:28;98637.66;;;-0.32;57.53
43298;BME280;28892;55.640;37.532;2023-02-11T07:32:55;98624.72;;;-0.12;57.12
43298;BME280;28892;55.640;37.532;2023-02-11T07:35:20;98647.53;;;-0.80;57.28
43298;BME280;28892;55.640;37.532;2023-02-11T07:37:46;98634.94;;;-0.63;58.06
43298;BME280;28892;55.640;37.532;2023-02-11T07:40:12;98636.69;;;-0.31;57.79
43298;BME280;28892;55.640;37.532;2023-02-11T07:42:38;98625.81;;;-0.15;56.66
43298;BME280;28892;55.640;37.532;2023-02-11T07:45:05;98627.06;;;-0.31;56.73
43298;BME280;28892;55.640;37.532;2023-02-11T07:47:33;98634.16;;;-0.43;56.77
43298;BME280;28892;55.640;37.532;2023-02-11T07:50:16;98628.16;;;-0.12;56.64
43298;BME280;28892;55.640;37.532;2023-02-11T07:52:42;98627.22;;;-0.11;56.33
43298;BME280;28892;55.640;37.532;2023-02-11T07:55:08;98632.84;;;-0.06;56.37
43298;BME280;28892;55.640;37.532;2023-02-11T07:57:34;98631.00;;;0.06;55.91
43298;BME280;28892;55.640;37.532;2023-02-11T08:00:01;98626.59;;;-0.24;56.54
43298;BME280;28892;55.640;37.532;2023-02-11T08:02:36;98624.59;;;-0.11;56.42
43298;BME280;28892;55.640;37.532;2023-02-11T08:05:02;98627.06;;;-0.31;56.86
43298;BME280;28892;55.640;37.532;2023-02-11T08:07:28;98619.72;;;-0.25;56.58
43298;BME280;28892;55.640;37.532;2023-02-11T08:09:57;98617.47;;;-0.09;56.82
43298;BME280;28892;55.640;37.532;2023-02-11T08:12:23;98605.47;;;0.00;56.39
43298;BME280;28892;55.640;37.532;2023-02-11T08:14:49;98596.31;;;0.16;55.72
43298;BME280;28892;55.640;37.532;2023-02-11T08:17:14;98604.03;;;0.17;55.61
43298;BME280;28892;55.640;37.532;2023-02-11T08:19:40;98594.19;;;-0.22;55.77
43298;BME280;28892;55.640;37.532;2023-02-11T08:22:06;98593.88;;;-0.29;56.72
43298;BME280;28892;55.640;37.532;2023-02-11T08:24:31;98592.50;;;-0.33;55.80
43298;BME280;28892;55.640;37.532;2023-02-11T08:26:57;98596.81;;;-0.64;57.90
43298;BME280;28892;55.640;37.532;2023-02-11T08:29:23;98582.78;;;-0.31;56.74
43298;BME280;28892;55.640;37.532;2023-02-11T08:31:48;98589.13;;;-0.66;56.30
43298;BME280;28892;55.640;37.532;2023-02-11T08:34:14;98603.50;;;-1.27;57.77
43298;BME280;28892;55.640;37.532;2023-02-11T08:36:45;98582.59;;;-0.93;58.29
43298;BME280;28892;55.640;37.532;2023-02-11T08:39:21;98580.19;;;-0.52;57.91
43298;BME280;28892;55.640;37.532;2023-02-11T08:41:50;98575.72;;;-0.40;56.83
43298;BME280;28892;55.640;37.532;2023-02-11T08:44:20;98578.00;;;-1.01;57.49
43298;BME280;28892;55.640;37.532;2023-02-11T08:46:46;98561.53;;;-0.90;58.16
43298;BME280;28892;55.640;37.532;2023-02-11T08:49:13;98564.59;;;-0.63;57.62
43298;BME280;28892;55.640;37.532;2023-02-11T08:51:39;98555.06;;;-0.32;56.74
43298;BME280;28892;55.640;37.532;2023-02-11T08:54:05;98564.25;;;-0.28;56.04
43298;BME280;28892;55.640;37.532;2023-02-11T08:56:35;98556.69;;;-0.09;56.38
43298;BME280;28892;55.640;37.532;2023-02-11T08:59:08;98545.47;;;-0.31;56.10
43298;BME280;28892;55.640;37.532;2023-02-11T09:01:36;98527.94;;;-0.50;57.20
43298;BME280;28892;55.640;37.532;2023-02-11T09:04:02;98524.75;;;-0.33;57.00
43298;BME280;28892;55.640;37.532;2023-02-11T09:06:28;98527.03;;;-0.61;57.76
43298;BME280;28892;55.640;37.532;2023-02-11T09:08:55;98506.81;;;-0.26;57.40
43298;BME280;28892;55.640;37.532;2023-02-11T09:11:29;98499.56;;;-0.12;56.57
43298;BME280;28892;55.640;37.532;2023-02-11T09:13:55;98513.47;;;-0.02;56.69
43298;BME280;28892;55.640;37.532;2023-02-11T09:16:24;98498.44;;;0.11;56.36
43298;BME280;28892;55.640;37.532;2023-02-11T09:18:51;98494.25;;;-0.11;56.45
43298;BME280;28892;55.640;37.532;2023-02-11T09:21:17;98486.94;;;-0.17;56.89
43298;BME280;28892;55.640;37.532;2023-02-11T09:23:44;98489.31;;;-0.14;57.27
43298;BME280;28892;55.640;37.532;2023-02-11T09:26:21;98458.47;;;0.01;56.90
43298;BME280;28892;55.640;37.532;2023-02-11T09:28:47;98473.06;;;0.23;56.39
43298;BME280;28892;55.640;37.532;2023-02-11T09:31:16;98455.13;;;-0.11;56.72
43298;BME280;28892;55.640;37.532;2023-02-11T09:33:44;98455.41;;;-0.14;56.80
43298;BME280;28892;55.640;37.532;2023-02-11T09:36:17;98453.63;;;-1.18;59.79
43298;BME280;28892;55.640;37.532;2023-02-11T09:38:43;98445.38;;;-0.81;59.33
43298;BME280;28892;55.640;37.532;2023-02-11T09:43:56;98443.13;;;-0.64;58.94
43298;BME280;28892;55.640;37.532;2023-02-11T09:46:24;98444.47;;;-0.70;59.19
43298;BME280;28892;55.640;37.532;2023-02-11T09:48:53;98443.94;;;-0.64;58.66
43298;BME280;28892;55.640;37.532;2023-02-11T09:53:57;98440.91;;;-0.69;59.21
43298;BME280;28892;55.640;37.532;2023-02-11T09:56:26;98405.53;;;-0.72;59.66
43298;BME280;28892;55.640;37.532;2023-02-11T09:58:52;98431.09;;;-0.55;59.24
43298;BME280;28892;55.640;37.532;2023-02-11T10:09:20;98413.22;;;-1.55;62.35
43298;BME280;28892;55.640;37.532;2023-02-11T10:12:31;98410.91;;;-0.94;61.21
43298;BME280;28892;55.640;37.532;2023-02-11T10:15:17;98405.06;;;-1.08;61.48
43298;BME280;28892;55.640;37.532;2023-02-11T10:21:07;98406.22;;;-0.69;60.82
43298;BME280;28892;55.640;37.532;2023-02-11T10:23:42;98400.03;;;-1.00;60.84
43298;BME280;28892;55.640;37.532;2023-02-11T10:26:15;98390.47;;;-0.68;60.60
43298;BME280;28892;55.640;37.532;2023-02-11T10:28:45;98384.72;;;-0.62;60.22
43298;BME280;28892;55.640;37.532;2023-02-11T10:31:27;98376.22;;;-0.64;60.38
43298;BME280;28892;55.640;37.532;2023-02-11T10:34:04;98364.03;;;-0.63;59.62
43298;BME280;28892;55.640;37.532;2023-02-11T10:36:37;98363.28;;;-0.34;59.44
43298;BME280;28892;55.640;37.532;2023-02-11T10:39:15;98367.91;;;-0.58;59.89
43298;BME280;28892;55.640;37.532;2023-02-11T10:41:50;98367.63;;;-0.54;59.81
43298;BME280;28892;55.640;37.532;2023-02-11T10:44:22;98346.84;;;-0.76;60.59
43298;BME280;28892;55.640;37.532;2023-02-11T10:46:50;98347.75;;;-0.46;59.84
43298;BME280;28892;55.640;37.532;2023-02-11T10:54:40;98331.38;;;-0.67;60.31
43298;BME280;28892;55.640;37.532;2023-02-11T10:57:17;98316.91;;;-1.65;62.88
43298;BME280;28892;55.640;37.532;2023-02-11T10:59:44;98319.38;;;-1.21;61.92
43298;BME280;28892;55.640;37.532;2023-02-11T11:02:26;98314.75;;;-1.38;62.73
43298;BME280;28892;55.640;37.532;2023-02-11T11:07:54;98291.03;;;-0.83;60.66
43298;BME280;28892;55.640;37.532;2023-02-11T11:12:58;98294.25;;;-1.01;60.41
43298;BME280;28892;55.640;37.532;2023-02-11T11:15:29;98290.75;;;-1.21;60.66
43298;BME280;28892;55.640;37.532;2023-02-11T11:18:15;98284.09;;;-1.14;61.08
43298;BME280;28892;55.640;37.532;2023-02-11T11:21:01;98291.56;;;-1.51;61.45
43298;BME280;28892;55.640;37.532;2023-02-11T11:23:29;98259.72;;;-1.34;60.84
43298;BME280;28892;55.640;37.532;2023-02-11T11:26:12;98268.22;;;-1.32;61.42
43298;BME280;28892;55.640;37.532;2023-02-11T11:28:50;98253.34;;;-0.79;60.10
43298;BME280;28892;55.640;37.532;2023-02-11T11:31:24;98248.41;;;-1.54;61.46
43298;BME280;28892;55.640;37.532;2023-02-11T11:33:53;98249.06;;;-1.31;61.13
43298;BME280;28892;55.640;37.532;2023-02-11T11:36:22;98230.59;;;-1.28;60.61
43298;BME280;28892;55.640;37.532;2023-02-11T11:38:53;98227.91;;;-1.47;61.06
43298;BME280;28892;55.640;37.532;2023-02-11T11:41:26;98218.88;;;-1.12;59.98
43298;BME280;28892;55.640;37.532;2023-02-11T11:44:01;98244.41;;;-0.96;58.92
43298;BME280;28892;55.640;37.532;2023-02-11T11:46:37;98224.72;;;-2.03;62.77
43298;BME280;28892;55.640;37.532;2023-02-11T11:52:34;98223.84;;;-2.58;64.47
43298;BME280;28892;55.640;37.532;2023-02-11T11:57:36;98198.72;;;-2.57;64.57
43298;BME280;28892;55.640;37.532;2023-02-11T12:00:03;98183.13;;;-2.03;63.13
43298;BME280;28892;55.640;37.532;2023-02-11T12:18:16;98169.69;;;-1.15;59.64
43298;BME280;28892;55.640;37.532;2023-02-11T12:21:08;98169.59;;;-1.45;60.32
43298;BME280;28892;55.640;37.532;2023-02-11T12:26:43;98152.84;;;-1.62;60.73
43298;BME280;28892;55.640;37.532;2023-02-11T12:34:55;98148.81;;;-1.35;59.92
43298;BME280;28892;55.640;37.532;2023-02-11T12:37:50;98152.53;;;-1.28;60.03
43298;BME280;28892;55.640;37.532;2023-02-11T12:40:45;98132.00;;;-1.21;59.82
43298;BME280;28892;55.640;37.532;2023-02-11T12:43:24;98141.47;;;-1.92;61.33
43298;BME280;28892;55.640;37.532;2023-02-11T12:46:07;98136.72;;;-2.29;63.00
43298;BME280;28892;55.640;37.532;2023-02-11T12:57:04;98111.56;;;-2.71;64.81
43298;BME280;28892;55.640;37.532;2023-02-11T13:02:18;98102.56;;;-2.03;62.75
43298;BME280;28892;55.640;37.532;2023-02-11T13:04:49;98081.59;;;-2.12;63.43
43298;BME280;28892;55.640;37.532;2023-02-11T13:07:27;98086.72;;;-2.85;65.63
43298;BME280;28892;55.640;37.532;2023-02-11T13:12:56;98031.44;;;-2.02;64.21
43298;BME280;28892;55.640;37.532;2023-02-11T13:15:54;98046.97;;;-2.12;63.31
43298;BME280;28892;55.640;37.532;2023-02-11T13:26:23;98040.06;;;-2.33;64.68
43298;BME280;28892;55.640;37.532;2023-02-11T13:31:38;98004.88;;;-2.06;65.30
43298;BME280;28892;55.640;37.532;2023-02-11T13:36:54;97994.69;;;-1.88;65.26
43298;BME280;28892;55.640;37.532;2023-02-11T13:39:20;97999.03;;;-1.98;65.13
43298;BME280;28892;55.640;37.532;2023-02-11T13:41:46;97984.78;;;-2.45;67.01
43298;BME280;28892;55.640;37.532;2023-02-11T13:46:58;97979.56;;;-2.45;67.66
43298;BME280;28892;55.640;37.532;2023-02-11T13:49:28;97984.75;;;-2.76;69.40
43298;BME280;28892;55.640;37.532;2023-02-11T13:51:55;97939.09;;;-2.47;69.43
43298;BME280;28892;55.640;37.532;2023-02-11T13:54:33;97969.97;;;-2.54;69.79
43298;BME280;28892;55.640;37.532;2023-02-11T13:59:53;97941.09;;;-2.61;70.39
43298;BME280;28892;55.640;37.532;2023-02-11T14:02:29;97922.09;;;-2.61;69.95
43298;BME280;28892;55.640;37.532;2023-02-11T14:08:14;97921.06;;;-2.80;71.14
43298;BME280;28892;55.640;37.532;2023-02-11T14:11:05;97947.41;;;-3.06;71.36
43298;BME280;28892;55.640;37.532;2023-02-11T14:16:16;97864.00;;;-3.01;72.12
43298;BME280;28892;55.640;37.532;2023-02-11T14:32:05;97855.94;;;-3.29;73.70
43298;BME280;28892;55.640;37.532;2023-02-11T14:37:37;97832.41;;;-3.38;74.13
43298;BME280;28892;55.640;37.532;2023-02-11T14:42:49;97802.88;;;-3.15;73.52
43298;BME280;28892;55.640;37.532;2023-02-11T14:45:26;97803.44;;;-2.81;73.07
43298;BME280;28892;55.640;37.532;2023-02-11T14:48:18;97786.22;;;-2.91;73.03
43298;BME280;28892;55.640;37.532;2023-02-11T14:50:52;97801.44;;;-2.98;73.21
43298;BME280;28892;55.640;37.532;2023-02-11T14:53:27;97797.50;;;-3.02;73.20
43298;BME280;28892;55.640;37.532;2023-02-11T14:55:57;97772.63;;;-3.05;73.74
43298;BME280;28892;55.640;37.532;2023-02-11T14:58:29;97766.16;;;-2.79;73.18
43298;BME280;28892;55.640;37.532;2023-02-11T15:04:24;97784.59;;;-2.83;72.91
43298;BME280;28892;55.640;37.532;2023-02-11T15:06:55;97786.34;;;-2.83;73.59
43298;BME280;28892;55.640;37.532;2023-02-11T15:09:39;97764.22;;;-2.77;74.29
43298;BME280;28892;55.640;37.532;2023-02-11T15:12:19;97747.53;;;-2.95;74.12
43298;BME280;28892;55.640;37.532;2023-02-11T15:14:53;97765.63;;;-2.73;73.65
43298;BME280;28892;55.640;37.532;2023-02-11T15:17:41;97723.88;;;-3.11;74.98
43298;BME280;28892;55.640;37.532;2023-02-11T15:24:01;97726.53;;;-2.91;74.33
43298;BME280;28892;55.640;37.532;2023-02-11T15:26:36;97730.44;;;-3.07;74.98
43298;BME280;28892;55.640;37.532;2023-02-11T15:29:19;97722.41;;;-2.94;75.26
43298;BME280;28892;55.640;37.532;2023-02-11T15:34:46;97695.13;;;-2.59;74.94
43298;BME280;28892;55.640;37.532;2023-02-11T15:37:27;97693.91;;;-2.45;74.27
43298;BME280;28892;55.640;37.532;2023-02-11T15:40:23;97694.72;;;-2.54;73.85
43298;BME280;28892;55.640;37.532;2023-02-11T15:43:05;97721.25;;;-2.41;73.14
43298;BME280;28892;55.640;37.532;2023-02-11T15:46:04;97697.31;;;-2.25;73.58
43298;BME280;28892;55.640;37.532;2023-02-11T15:48:41;97697.59;;;-2.57;74.31
43298;BME280;28892;55.640;37.532;2023-02-11T15:51:22;97702.50;;;-2.25;74.86
43298;BME280;28892;55.640;37.532;2023-02-11T15:53:54;97680.06;;;-2.95;75.31
43298;BME280;28892;55.640;37.532;2023-02-11T15:56:39;97661.78;;;-3.03;75.75
43298;BME280;28892;55.640;37.532;2023-02-11T15:59:24;97689.41;;;-2.53;75.10
43298;BME280;28892;55.640;37.532;2023-02-11T16:02:30;97674.41;;;-1.81;74.39